Time;durP1;ratioP1;P1;durP2;ratioP2;P2;SDS_P1;SDS_P2;PMS_P1;PMS_P2;Temp;Humidity;BMP_temperature;BMP_pressure;BME280_temperature;BME280_humidity;BME280_pressure;Samples;Min_cycle;Max_cycle;Signal;HPM_P1;HPM_P2
2021/12/29 00:01:03;;;;;;;;;;;6.80;99.90;;;;;;4863521;29;20281;-81
2021/12/29 00:03:28;;;;;;;;;;;6.80;99.90;;;;;;4863800;29;20224;-81
2021/12/29 00:05:54;;;;;;;;;;;6.80;99.90;;;;;;4863292;29;19945;-81
2021/12/29 00:08:28;;;;;;;;;;;6.80;99.90;;;;;;4863284;29;20054;-81
2021/12/29 00:10:56;;;;;;;;;;;6.80;99.90;;;;;;4862101;29;19931;-81
2021/12/29 00:13:25;;;;;;;;;;;6.90;99.90;;;;;;4862711;29;20383;-81
2021/12/29 00:15:57;;;;;;;;;;;6.90;99.90;;;;;;4862665;29;20324;-81
2021/12/29 00:18:23;;;;;;;;;;;7.00;99.90;;;;;;4862554;29;20007;-81
2021/12/29 00:20:49;;;;;;;;;;;7.00;99.90;;;;;;4862979;29;20282;-80
2021/12/29 00:23:14;;;;;;;;;;;7.00;99.90;;;;;;4862763;29;19924;-81
2021/12/29 00:25:40;;;;;;;;;;;7.00;99.90;;;;;;4864837;29;20264;-81
2021/12/29 00:28:05;;;;;;;;;;;7.00;99.90;;;;;;4877189;29;19923;-82
2021/12/29 00:30:31;;;;;;;;;;;7.00;99.90;;;;;;4880032;29;19924;-81
2021/12/29 00:32:57;;;;;;;;;;;7.10;99.90;;;;;;4879909;29;19994;-81
2021/12/29 00:35:23;;;;;;;;;;;7.00;99.90;;;;;;4883639;29;19939;-81
2021/12/29 00:37:48;;;;;;;;;;;7.00;99.90;;;;;;4878942;29;19959;-81
2021/12/29 00:40:17;;;;;;;;;;;7.10;99.90;;;;;;4880310;29;19931;-81
2021/12/29 00:42:53;;;;;;;;;;;7.10;99.90;;;;;;4882905;29;19928;-81
2021/12/29 06:47:57;;;;;;;;;;;7.00;99.90;;;;;;4933516;29;20018;-80
2021/12/29 06:50:23;;;;;;;;;;;7.40;99.90;;;;;;4917446;29;20009;-81
2021/12/29 06:52:48;;;;;;;;;;;7.40;99.90;;;;;;4916903;29;19930;-81
2021/12/29 06:55:14;;;;;;;;;;;7.40;99.90;;;;;;4932249;29;19922;-81
2021/12/29 06:57:40;;;;;;;;;;;7.40;99.90;;;;;;4916261;29;19923;-81
2021/12/29 07:00:06;;;;;;;;;;;7.40;99.90;;;;;;4937188;29;20021;-81
2021/12/29 07:02:31;;;;;;;;;;;7.40;99.90;;;;;;4932072;29;19965;-80
2021/12/29 07:04:57;;;;;;;;;;;7.40;99.90;;;;;;4916136;29;19986;-80
2021/12/29 07:07:22;;;;;;;;;;;7.40;99.90;;;;;;4916768;29;19923;-81
2021/12/29 07:09:48;;;;;;;;;;;7.40;99.90;;;;;;4917729;29;20041;-81
2021/12/29 07:12:13;;;;;;;;;;;7.40;99.90;;;;;;4936206;29;19922;-80
2021/12/29 07:14:39;;;;;;;;;;;7.40;99.90;;;;;;4973521;23;19985;-81
2021/12/29 07:19:41;;;;;;;;;;;6.20;99.90;;;;;;4925328;29;19954;-80
2021/12/29 07:22:07;;;;;;;;;;;7.40;99.90;;;;;;4911473;29;19970;-80
2021/12/29 07:24:33;;;;;;;;;;;7.50;99.90;;;;;;4909294;29;20006;-81
2021/12/29 07:26:58;;;;;;;;;;;7.40;99.90;;;;;;4909095;29;19965;-81
2021/12/29 07:29:24;;;;;;;;;;;7.40;99.90;;;;;;4912199;29;19966;-81
2021/12/29 07:31:49;;;;;;;;;;;7.40;99.90;;;;;;4909393;29;19927;-81
2021/12/29 07:34:15;;;;;;;;;;;7.40;99.90;;;;;;4911109;29;19923;-81
2021/12/29 07:36:41;;;;;;;;;;;7.40;99.90;;;;;;4909775;29;19923;-82
2021/12/29 07:39:11;;;;;;;;;;;7.40;99.90;;;;;;4907439;29;20066;-81
2021/12/29 07:41:37;;;;;;;;;;;7.50;99.90;;;;;;4910382;29;20298;-81
2021/12/29 07:44:04;;;;;;;;;;;7.40;99.90;;;;;;4912424;29;19930;-81
2021/12/29 07:46:33;;;;;;;;;;;7.40;99.90;;;;;;4908455;29;19977;-81
2021/12/29 07:48:59;;;;;;;;;;;7.40;99.90;;;;;;4908817;29;19926;-81
2021/12/29 07:51:25;;;;;;;;;;;7.40;99.90;;;;;;4911601;29;19964;-81
2021/12/29 07:53:50;;;;;;;;;;;7.40;99.90;;;;;;4910603;29;20002;-81
2021/12/29 07:56:17;;;;;;;;;;;7.40;99.90;;;;;;4911316;29;20054;-81
2021/12/29 07:58:42;;;;;;;;;;;7.40;99.90;;;;;;4909436;29;19930;-81
2021/12/29 08:01:08;;;;;;;;;;;7.40;99.90;;;;;;4911521;29;19918;-80
2021/12/29 08:03:34;;;;;;;;;;;7.40;99.90;;;;;;4925573;29;20303;-81
2021/12/29 08:05:59;;;;;;;;;;;7.40;99.90;;;;;;4910874;29;19923;-80
2021/12/29 08:08:28;;;;;;;;;;;7.40;99.90;;;;;;4909807;29;19919;-81
2021/12/29 08:10:53;;;;;;;;;;;7.40;99.90;;;;;;4907986;29;20308;-81
2021/12/29 08:16:04;;;;;;;;;;;7.40;99.90;;;;;;4922171;23;19923;-81
2021/12/29 08:18:29;;;;;;;;;;;7.10;99.90;;;;;;4904693;23;19931;-80
2021/12/29 08:20:55;;;;;;;;;;;7.40;99.90;;;;;;4890424;29;19932;-90
2021/12/29 08:23:20;;;;;;;;;;;7.40;99.90;;;;;;4893949;29;20313;-79
2021/12/29 08:25:46;;;;;;;;;;;7.40;99.90;;;;;;4890769;29;19962;-81
2021/12/29 08:28:14;;;;;;;;;;;7.30;99.90;;;;;;4893019;29;20387;-81
2021/12/29 08:30:40;;;;;;;;;;;7.30;99.90;;;;;;4894443;29;19930;-90
2021/12/29 08:33:06;;;;;;;;;;;7.30;99.90;;;;;;4892425;29;19923;-85
2021/12/29 08:35:32;;;;;;;;;;;7.40;99.90;;;;;;4889890;29;20287;-83
2021/12/29 08:37:57;;;;;;;;;;;7.40;99.90;;;;;;4888166;29;19923;-81
2021/12/29 08:40:44;;;;;;;;;;;7.40;99.90;;;;;;5055957;23;19931;-80
2021/12/29 08:58:00;;;;;;;;;;;7.40;99.90;;;;;;5916840;23;19990;-87
2021/12/29 09:00:26;;;;;;;;;;;7.40;99.90;;;;;;4881653;29;1088720;-86
2021/12/29 09:02:51;;;;;;;;;;;7.40;99.90;;;;;;4918825;29;19946;-82
2021/12/29 09:05:17;;;;;;;;;;;7.40;99.90;;;;;;4918009;29;19923;-84
2021/12/29 09:07:43;;;;;;;;;;;7.40;99.90;;;;;;4913610;29;19931;-84
2021/12/29 09:10:10;;;;;;;;;;;7.40;99.90;;;;;;4935290;29;19977;-84
2021/12/29 09:12:35;;;;;;;;;;;7.40;99.90;;;;;;4917465;29;19933;-77
2021/12/29 09:15:01;;;;;;;;;;;7.50;99.90;;;;;;4918616;29;19923;-85
2021/12/29 09:17:27;;;;;;;;;;;7.40;99.90;;;;;;4918885;29;19974;-90
2021/12/29 09:22:28;;;;;;;;;;;7.50;99.90;;;;;;5703235;23;19930;-85
2021/12/29 09:24:54;;;;;;;;;;;7.50;99.90;;;;;;4920150;29;19923;-81
2021/12/29 09:27:20;;;;;;;;;;;7.50;99.90;;;;;;5050562;23;20331;-84
2021/12/29 09:29:45;;;;;;;;;;;7.60;99.90;;;;;;4943571;29;19947;-84
2021/12/29 09:32:11;;;;;;;;;;;7.50;99.90;;;;;;4946988;29;19986;-86
2021/12/29 09:34:36;;;;;;;;;;;7.50;99.90;;;;;;4946932;29;19911;-87
2021/12/29 09:37:03;;;;;;;;;;;7.50;99.90;;;;;;4929710;29;19934;-86
2021/12/29 09:39:29;;;;;;;;;;;7.50;99.90;;;;;;4927173;29;19934;-83
2021/12/29 09:41:54;;;;;;;;;;;7.60;99.90;;;;;;4926380;29;19919;-83
2021/12/29 09:44:20;;;;;;;;;;;7.60;99.90;;;;;;4913582;29;20337;-83
2021/12/29 09:46:48;;;;;;;;;;;7.60;99.90;;;;;;4914295;29;19934;-84
2021/12/29 09:49:14;;;;;;;;;;;7.60;99.90;;;;;;4930462;29;20017;-83
2021/12/29 09:51:39;;;;;;;;;;;7.50;99.90;;;;;;4915211;29;20010;-79
2021/12/29 09:54:05;;;;;;;;;;;7.60;99.90;;;;;;4914306;29;20311;-81
2021/12/29 10:26:21;;;;;;;;;;;7.60;99.90;;;;;;5880310;23;20509;-86
2021/12/29 10:28:48;;;;;;;;;;;7.70;99.90;;;;;;4917449;29;20399;-83
2021/12/29 10:31:18;;;;;;;;;;;7.70;99.90;;;;;;4933013;29;19957;-84
2021/12/29 10:33:44;;;;;;;;;;;7.70;99.90;;;;;;4929197;29;19944;-86
2021/12/29 10:36:23;;;;;;;;;;;7.70;99.90;;;;;;4912876;29;20430;-80
2021/12/29 10:39:04;;;;;;;;;;;7.70;99.90;;;;;;4916093;29;19929;-84
2021/12/29 10:41:41;;;;;;;;;;;7.70;99.90;;;;;;4918670;29;19923;-84
2021/12/29 10:44:07;;;;;;;;;;;7.70;99.90;;;;;;4916834;29;20025;-85
2021/12/29 10:46:33;;;;;;;;;;;7.70;99.90;;;;;;4936015;29;19989;-84
2021/12/29 10:52:23;;;;;;;;;;;7.70;99.90;;;;;;4900627;29;19923;-84
2021/12/29 10:55:13;;;;;;;;;;;7.70;99.90;;;;;;4897613;29;20335;-84
2021/12/29 11:01:15;;;;;;;;;;;6.60;99.90;;;;;;4899305;29;19958;-82
2021/12/29 11:03:59;;;;;;;;;;;8.10;99.90;;;;;;4901113;29;20037;-82
2021/12/29 11:06:28;;;;;;;;;;;7.80;99.90;;;;;;4899722;29;20406;-82
2021/12/29 11:09:02;;;;;;;;;;;7.80;99.90;;;;;;4901028;29;19962;-82
2021/12/29 11:11:32;;;;;;;;;;;7.80;99.90;;;;;;4900448;29;19931;-82
2021/12/29 11:14:17;;;;;;;;;;;7.80;99.90;;;;;;4966117;23;19923;-82
2021/12/29 11:16:44;;;;;;;;;;;7.80;99.90;;;;;;4930674;29;20430;-82
2021/12/29 11:19:10;;;;;;;;;;;7.80;99.90;;;;;;4925159;23;19923;-81
2021/12/29 11:21:38;;;;;;;;;;;7.80;99.90;;;;;;4921386;29;20405;-81
2021/12/29 11:24:17;;;;;;;;;;;7.80;99.90;;;;;;4917066;29;19922;-82
2021/12/29 11:26:44;;;;;;;;;;;7.80;99.90;;;;;;4949147;29;19935;-81
2021/12/29 11:29:11;;;;;;;;;;;7.90;99.90;;;;;;4936205;29;19922;-81
2021/12/29 11:31:42;;;;;;;;;;;7.90;99.90;;;;;;4935920;29;19930;-82
2021/12/29 11:34:24;;;;;;;;;;;7.90;99.90;;;;;;4919919;29;19929;-82
2021/12/29 11:37:06;;;;;;;;;;;7.90;99.90;;;;;;4920735;29;20381;-82
2021/12/29 11:39:34;;;;;;;;;;;7.90;99.90;;;;;;4932064;29;20346;-82
2021/12/29 11:41:59;;;;;;;;;;;8.00;99.90;;;;;;4936346;29;20282;-82
2021/12/29 11:44:25;;;;;;;;;;;8.00;99.90;;;;;;4936127;29;19922;-82
2021/12/29 11:49:26;;;;;;;;;;;7.90;99.90;;;;;;5164725;23;19986;-77
2021/12/29 11:51:57;;;;;;;;;;;7.90;99.90;;;;;;4919647;29;20382;-76
2021/12/29 11:54:35;;;;;;;;;;;8.00;99.90;;;;;;4935574;29;19996;-77
2021/12/29 11:57:11;;;;;;;;;;;8.10;99.90;;;;;;4935140;29;19922;-78
2021/12/29 11:59:37;;;;;;;;;;;8.20;99.90;;;;;;4938653;29;19923;-78
2021/12/29 12:02:03;;;;;;;;;;;8.20;99.90;;;;;;4919057;29;20010;-80
2021/12/29 12:04:31;;;;;;;;;;;8.20;99.90;;;;;;4935971;29;19922;-79
2021/12/29 12:07:05;;;;;;;;;;;8.30;99.90;;;;;;4935975;29;20279;-80
2021/12/29 12:09:43;;;;;;;;;;;8.30;99.90;;;;;;4935563;29;19931;-81
2021/12/29 12:12:09;;;;;;;;;;;8.30;99.90;;;;;;4919218;29;19961;-82
2021/12/29 12:14:42;;;;;;;;;;;8.40;99.90;;;;;;4919677;29;19993;-79
2021/12/29 12:17:11;;;;;;;;;;;8.50;99.90;;;;;;4936733;29;19923;-86
2021/12/29 12:19:37;;;;;;;;;;;8.50;99.90;;;;;;4935518;29;19930;-86
2021/12/29 12:22:26;;;;;;;;;;;8.40;99.90;;;;;;4919883;29;19930;-86
2021/12/29 12:24:51;;;;;;;;;;;8.40;99.90;;;;;;4917394;29;20414;-85
2021/12/29 12:27:31;;;;;;;;;;;8.50;99.90;;;;;;4919938;29;19927;-86
2021/12/29 12:30:05;;;;;;;;;;;8.50;99.90;;;;;;4931862;29;19930;-86
2021/12/29 12:48:13;;;;;;;;;;;8.30;99.90;;;;;;5638019;23;19970;-81
2021/12/29 12:50:41;;;;;;;;;;;8.20;99.90;;;;;;4933155;29;20390;-78
2021/12/29 12:53:07;;;;;;;;;;;8.20;99.90;;;;;;4935021;29;19977;-80
2021/12/29 12:55:47;;;;;;;;;;;8.20;99.90;;;;;;4934332;29;19954;-80
2021/12/29 12:58:14;;;;;;;;;;;9.40;99.90;;;;;;4933654;29;20294;-80
2021/12/29 13:00:41;;;;;;;;;;;8.00;99.90;;;;;;4935026;29;19930;-82
2021/12/29 13:03:08;;;;;;;;;;;8.10;99.90;;;;;;4934542;29;20018;-79
2021/12/29 13:05:41;;;;;;;;;;;8.00;99.90;;;;;;4919839;29;19929;-79
2021/12/29 13:08:08;;;;;;;;;;;8.00;99.90;;;;;;4934322;29;19923;-78
2021/12/29 13:10:37;;;;;;;;;;;8.00;99.90;;;;;;4934018;29;19923;-79
2021/12/29 13:13:10;;;;;;;;;;;8.10;99.90;;;;;;4935105;29;19922;-80
2021/12/29 13:32:51;;;;;;;;;;;7.90;99.90;;;;;;6055124;23;20194;-86
2021/12/29 13:35:21;;;;;;;;;;;7.80;99.90;;;;;;4823385;29;20023;-81
2021/12/29 13:37:46;;;;;;;;;;;7.80;99.90;;;;;;4825103;29;19976;-85
2021/12/29 13:40:13;;;;;;;;;;;7.70;99.90;;;;;;4824393;29;20007;-90
2021/12/29 13:42:42;;;;;;;;;;;7.90;99.90;;;;;;4825415;29;19932;-81
2021/12/29 13:45:19;;;;;;;;;;;7.80;99.90;;;;;;4841887;29;20392;-87
2021/12/29 13:47:44;;;;;;;;;;;7.70;99.90;;;;;;4824369;29;20380;-96
2021/12/29 13:50:13;;;;;;;;;;;7.80;99.90;;;;;;4824533;29;19967;-93
2021/12/29 13:52:38;;;;;;;;;;;7.80;99.90;;;;;;4834221;23;19928;-89
2021/12/29 13:55:04;;;;;;;;;;;7.80;99.90;;;;;;4900622;29;20083;-84
2021/12/29 13:57:30;;;;;;;;;;;7.80;99.90;;;;;;4898078;29;19986;-80
2021/12/29 13:59:59;;;;;;;;;;;7.80;99.90;;;;;;4902006;29;20611;-82
2021/12/29 14:02:24;;;;;;;;;;;7.70;99.90;;;;;;4898731;29;19923;-84
2021/12/29 14:04:52;;;;;;;;;;;7.60;99.90;;;;;;4898696;29;20339;-86
2021/12/29 14:07:18;;;;;;;;;;;7.70;99.90;;;;;;4897461;29;19970;-76
2021/12/29 14:09:44;;;;;;;;;;;7.70;99.90;;;;;;4916265;29;19923;-82
2021/12/29 14:12:11;;;;;;;;;;;7.70;99.90;;;;;;4899377;29;19951;-85
2021/12/29 14:14:37;;;;;;;;;;;7.60;99.90;;;;;;4900668;29;19927;-84
2021/12/29 14:17:03;;;;;;;;;;;7.60;99.90;;;;;;4892583;29;20311;-84
2021/12/29 14:19:29;;;;;;;;;;;7.70;99.90;;;;;;4901606;29;19938;-84
2021/12/29 14:21:58;;;;;;;;;;;7.70;99.90;;;;;;4904530;29;19927;-79
2021/12/29 14:24:38;;;;;;;;;;;7.70;99.90;;;;;;4904378;29;20017;-81
2021/12/29 14:27:03;;;;;;;;;;;7.80;99.90;;;;;;4905121;29;19975;-83
2021/12/29 14:29:30;;;;;;;;;;;7.80;99.90;;;;;;4923674;29;19927;-83
2021/12/29 14:31:56;;;;;;;;;;;7.70;99.90;;;;;;4902487;29;20295;-85
2021/12/29 14:34:22;;;;;;;;;;;7.80;99.90;;;;;;4904789;29;19923;-88
2021/12/29 14:36:50;;;;;;;;;;;7.70;99.90;;;;;;4904659;29;19927;-80
2021/12/29 14:39:21;;;;;;;;;;;7.80;99.90;;;;;;4904262;29;19927;-84
2021/12/29 15:00:30;;;;;;;;;;;7.80;99.90;;;;;;5007042;23;20317;-85
2021/12/29 15:03:01;;;;;;;;;;;7.80;99.90;;;;;;4888447;29;20334;-80
2021/12/29 15:05:33;;;;;;;;;;;7.50;99.90;;;;;;4884424;29;19930;-79
2021/12/29 15:07:58;;;;;;;;;;;7.70;99.90;;;;;;4887540;29;19934;-83
2021/12/29 15:10:27;;;;;;;;;;;7.70;99.90;;;;;;4884612;29;19931;-76
2021/12/29 15:12:52;;;;;;;;;;;7.80;99.90;;;;;;4890069;29;19979;-76
2021/12/29 15:15:23;;;;;;;;;;;8.00;99.90;;;;;;4885621;29;19959;-80
2021/12/29 15:17:53;;;;;;;;;;;7.80;99.90;;;;;;4885928;29;19962;-85
2021/12/29 15:20:19;;;;;;;;;;;7.80;99.90;;;;;;4884900;29;20006;-81
2021/12/29 15:22:45;;;;;;;;;;;7.80;99.90;;;;;;4885766;29;19963;-83
2021/12/29 15:34:48;;;;;;;;;;;7.90;99.90;;;;;;4850490;29;19934;-81
2021/12/29 15:37:35;;;;;;;;;;;7.80;99.90;;;;;;4834226;29;20281;-80
2021/12/29 15:40:28;;;;;;;;;;;7.40;99.90;;;;;;4850785;29;19972;-81
2021/12/29 15:42:57;;;;;;;;;;;7.80;99.90;;;;;;4837003;29;19928;-79
2021/12/29 15:45:24;;;;;;;;;;;9.10;99.90;;;;;;4850520;29;19955;-80
2021/12/29 15:47:56;;;;;;;;;;;7.80;99.90;;;;;;4890207;29;20036;-77
2021/12/29 15:50:26;;;;;;;;;;;7.90;99.90;;;;;;4888290;29;19918;-78
2021/12/29 15:53:16;;;;;;;;;;;7.80;99.90;;;;;;4892829;29;19979;-81
2021/12/29 15:55:57;;;;;;;;;;;7.90;99.90;;;;;;4902921;29;20386;-82
2021/12/29 15:58:38;;;;;;;;;;;8.00;99.90;;;;;;4893451;29;19966;-81
2021/12/29 16:01:07;;;;;;;;;;;7.90;99.90;;;;;;4876228;29;19938;-79
2021/12/29 16:06:55;;;;;;;;;;;7.00;99.90;;;;;;4903047;29;19961;-83
2021/12/29 16:11:56;;;;;;;;;;;7.90;99.90;;;;;;3429920;23;19929;-83
2021/12/29 16:14:22;;;;;;;;;;;7.90;99.90;;;;;;4920349;29;20399;-84
2021/12/29 16:16:48;;;;;;;;;;;7.90;99.90;;;;;;4919137;29;19923;-86
2021/12/29 16:19:14;;;;;;;;;;;7.80;99.90;;;;;;4919250;29;19977;-87
2021/12/29 16:21:39;;;;;;;;;;;7.80;99.90;;;;;;4918726;29;20302;-85
2021/12/29 16:24:05;;;;;;;;;;;7.90;99.90;;;;;;4936217;29;20014;-79
2021/12/29 16:26:31;;;;;;;;;;;7.90;99.90;;;;;;4936024;29;19938;-82
2021/12/29 16:28:57;;;;;;;;;;;7.90;99.90;;;;;;4935919;29;19926;-83
2021/12/29 16:31:22;;;;;;;;;;;7.90;99.90;;;;;;4934595;29;19923;-80
2021/12/29 16:33:48;;;;;;;;;;;8.10;99.90;;;;;;4936367;29;19930;-82
2021/12/29 16:36:14;;;;;;;;;;;8.00;99.90;;;;;;4935325;29;20303;-83
2021/12/29 16:38:40;;;;;;;;;;;8.00;99.90;;;;;;4919089;29;19923;-84
2021/12/29 16:41:05;;;;;;;;;;;8.10;99.90;;;;;;4918895;29;19974;-85
2021/12/29 16:43:35;;;;;;;;;;;8.00;99.90;;;;;;4919961;29;19930;-84
2021/12/29 16:46:01;;;;;;;;;;;8.10;99.90;;;;;;4919068;29;19930;-83
2021/12/29 16:48:26;;;;;;;;;;;8.00;99.90;;;;;;4918480;29;19923;-90
2021/12/29 16:50:52;;;;;;;;;;;8.10;99.90;;;;;;4922075;29;19926;-88
2021/12/29 16:53:19;;;;;;;;;;;8.00;99.90;;;;;;4916493;29;19930;-83
2021/12/29 16:55:48;;;;;;;;;;;8.00;99.90;;;;;;4935277;29;20330;-83
2021/12/29 16:58:16;;;;;;;;;;;8.20;99.90;;;;;;4922782;29;19930;-86
2021/12/29 17:00:41;;;;;;;;;;;8.00;99.90;;;;;;4930923;29;19966;-86
2021/12/29 17:03:07;;;;;;;;;;;8.00;99.90;;;;;;4913891;29;20360;-88
2021/12/29 17:05:33;;;;;;;;;;;8.00;99.90;;;;;;4931909;29;19923;-86
2021/12/29 17:07:59;;;;;;;;;;;8.00;99.90;;;;;;4918824;29;19922;-81
2021/12/29 17:10:24;;;;;;;;;;;8.00;99.90;;;;;;5171539;23;19930;-87
2021/12/29 17:12:53;;;;;;;;;;;7.90;99.90;;;;;;4913664;29;19973;-84
2021/12/29 17:15:21;;;;;;;;;;;7.90;99.90;;;;;;4907893;29;20129;-80
2021/12/29 17:17:49;;;;;;;;;;;7.90;99.90;;;;;;4907976;29;19929;-86
2021/12/29 17:20:16;;;;;;;;;;;7.90;99.90;;;;;;4903348;29;20034;-79
2021/12/29 17:22:42;;;;;;;;;;;7.90;99.90;;;;;;4911236;29;19943;-81
2021/12/29 17:25:09;;;;;;;;;;;7.90;99.90;;;;;;4925121;29;20019;-81
2021/12/29 17:27:35;;;;;;;;;;;8.00;99.90;;;;;;4907008;29;20484;-89
2021/12/29 17:30:02;;;;;;;;;;;8.10;99.90;;;;;;4907144;29;20019;-82
2021/12/29 17:32:27;;;;;;;;;;;8.00;99.90;;;;;;4908525;29;19981;-80
2021/12/29 17:34:53;;;;;;;;;;;8.00;99.90;;;;;;4906850;29;19927;-87
2021/12/29 17:37:21;;;;;;;;;;;9.20;99.90;;;;;;4909798;29;19922;-90
2021/12/29 17:39:50;;;;;;;;;;;8.90;99.90;;;;;;4910564;29;19933;-82
2021/12/29 17:45:49;;;;;;;;;;;8.30;99.90;;;;;;4929970;29;19921;-96
2021/12/29 17:48:21;;;;;;;;;;;8.70;99.90;;;;;;4914072;29;20367;-77
2021/12/29 17:51:21;;;;;;;;;;;9.50;99.90;;;;;;4906659;29;19923;-82
2021/12/29 17:53:53;;;;;;;;;;;8.50;99.90;;;;;;4910282;29;19979;-81
2021/12/29 17:56:19;;;;;;;;;;;8.40;99.90;;;;;;4906957;29;19973;-84
2021/12/29 17:58:45;;;;;;;;;;;7.40;99.90;;;;;;4906370;29;19923;-86
2021/12/29 18:01:20;;;;;;;;;;;9.50;99.90;;;;;;4925900;29;19934;-85
2021/12/29 18:04:05;;;;;;;;;;;8.10;99.90;;;;;;4910995;29;20686;-91
2021/12/29 18:06:40;;;;;;;;;;;8.00;99.90;;;;;;4919273;29;19930;-91
2021/12/29 18:12:07;;;;;;;;;;;8.40;99.90;;;;;;4911104;29;19930;-90
2021/12/29 18:14:36;;;;;;;;;;;8.40;99.90;;;;;;4920721;29;19923;-86
2021/12/29 18:17:10;;;;;;;;;;;9.30;99.90;;;;;;4916745;29;19927;-90
2021/12/29 18:19:36;;;;;;;;;;;8.30;99.90;;;;;;4920256;23;19929;-86
2021/12/29 18:22:02;;;;;;;;;;;8.30;99.90;;;;;;4914889;29;20789;-84
2021/12/29 18:24:27;;;;;;;;;;;8.30;99.90;;;;;;4974601;23;19970;-85
2021/12/29 18:26:53;;;;;;;;;;;8.30;99.90;;;;;;4924879;29;20318;-90
2021/12/29 18:31:54;;;;;;;;;;;8.30;99.90;;;;;;5265928;23;19993;-87
2021/12/29 18:34:19;;;;;;;;;;;8.30;99.90;;;;;;4921423;29;20354;-85
2021/12/29 18:39:26;;;;;;;;;;;8.30;99.90;;;;;;4741788;23;19923;-86
2021/12/29 18:41:55;;;;;;;;;;;7.60;99.90;;;;;;4893005;29;19962;-86
2021/12/29 18:44:33;;;;;;;;;;;8.50;99.90;;;;;;4897142;29;19927;-87
2021/12/29 18:47:04;;;;;;;;;;;8.70;99.90;;;;;;4885822;29;19947;-89
2021/12/29 18:49:30;;;;;;;;;;;7.70;99.90;;;;;;4903081;29;19927;-83
2021/12/29 18:51:56;;;;;;;;;;;8.20;99.90;;;;;;4883888;29;19929;-82
2021/12/29 18:54:22;;;;;;;;;;;8.60;99.90;;;;;;4883651;29;19991;-83
2021/12/29 18:56:51;;;;;;;;;;;8.60;99.90;;;;;;4891131;23;19927;-82
2021/12/29 18:59:17;;;;;;;;;;;8.70;99.90;;;;;;4884081;29;19973;-84
2021/12/29 19:01:42;;;;;;;;;;;8.80;99.90;;;;;;4882680;29;19931;-85
2021/12/29 19:04:08;;;;;;;;;;;8.80;99.90;;;;;;4885368;29;19951;-87
2021/12/29 19:06:33;;;;;;;;;;;8.90;99.90;;;;;;4887133;29;19926;-85
2021/12/29 19:08:59;;;;;;;;;;;9.00;99.90;;;;;;4887511;29;20728;-82
2021/12/29 19:13:51;;;;;;;;;;;9.20;99.90;;;;;;4930734;23;20013;-88
2021/12/29 19:16:17;;;;;;;;;;;9.10;99.90;;;;;;4907470;29;19936;-86
2021/12/29 19:18:43;;;;;;;;;;;9.20;99.90;;;;;;4911442;29;20054;-91
2021/12/29 19:21:08;;;;;;;;;;;9.20;99.90;;;;;;4909052;29;20021;-89
2021/12/29 19:23:34;;;;;;;;;;;9.10;99.90;;;;;;4902764;29;19976;-93
2021/12/29 19:25:59;;;;;;;;;;;9.20;99.90;;;;;;4903149;29;20398;-90
2021/12/29 19:28:25;;;;;;;;;;;9.20;99.90;;;;;;4902829;29;19931;-92
2021/12/29 19:30:52;;;;;;;;;;;9.20;99.90;;;;;;4901397;29;19927;-93
2021/12/29 19:33:17;;;;;;;;;;;9.20;99.90;;;;;;4896894;29;19951;-86
2021/12/29 19:35:44;;;;;;;;;;;9.90;99.90;;;;;;4902098;29;19923;-92
2021/12/29 19:38:12;;;;;;;;;;;9.10;99.90;;;;;;4901181;29;19978;-90
2021/12/29 19:40:37;;;;;;;;;;;9.10;99.90;;;;;;4902181;29;19930;-89
2021/12/29 19:43:03;;;;;;;;;;;9.10;99.90;;;;;;4903815;29;19925;-91
2021/12/29 19:45:29;;;;;;;;;;;9.20;99.90;;;;;;4915606;29;19927;-84
2021/12/29 19:47:55;;;;;;;;;;;9.20;99.90;;;;;;4918945;29;20279;-91
2021/12/29 19:50:41;;;;;;;;;;;9.20;99.90;;;;;;4919773;29;19926;-93
2021/12/29 19:53:08;;;;;;;;;;;9.20;99.90;;;;;;4901940;29;19966;-83
2021/12/29 19:55:35;;;;;;;;;;;9.30;99.90;;;;;;4917210;29;19926;-84
2021/12/29 19:58:01;;;;;;;;;;;9.30;99.90;;;;;;4900646;29;20290;-84
2021/12/29 20:00:27;;;;;;;;;;;9.30;99.90;;;;;;4898620;29;20422;-88
2021/12/29 20:02:53;;;;;;;;;;;9.30;99.90;;;;;;4922592;29;19923;-91
2021/12/29 20:05:19;;;;;;;;;;;9.40;99.90;;;;;;4911045;29;19930;-86
2021/12/29 20:07:46;;;;;;;;;;;9.40;99.90;;;;;;4907741;29;20322;-82
2021/12/29 20:10:13;;;;;;;;;;;10.00;99.90;;;;;;4912589;29;20445;-81
2021/12/29 20:12:39;;;;;;;;;;;9.40;99.90;;;;;;4903949;29;19927;-83
2021/12/29 20:15:09;;;;;;;;;;;9.40;99.90;;;;;;4913743;29;19930;-81
2021/12/29 20:17:35;;;;;;;;;;;9.40;99.90;;;;;;4892280;29;19930;-82
2021/12/29 20:20:01;;;;;;;;;;;9.90;99.90;;;;;;4901215;29;19923;-83
2021/12/29 20:22:26;;;;;;;;;;;9.40;99.90;;;;;;4899568;29;19930;-82
2021/12/29 20:24:52;;;;;;;;;;;9.40;99.90;;;;;;4904804;29;19923;-86
2021/12/29 20:27:18;;;;;;;;;;;9.40;99.90;;;;;;4904575;29;19946;-85
2021/12/29 20:29:43;;;;;;;;;;;9.40;99.90;;;;;;4900078;29;19930;-79
2021/12/29 20:32:08;;;;;;;;;;;9.30;99.90;;;;;;4916741;29;19923;-80
2021/12/29 20:34:34;;;;;;;;;;;9.30;99.90;;;;;;4919654;29;19923;-86
2021/12/29 20:37:01;;;;;;;;;;;9.30;99.90;;;;;;4922558;29;20323;-83
2021/12/29 20:39:26;;;;;;;;;;;9.40;99.90;;;;;;4910214;29;19923;-79
2021/12/29 20:41:52;;;;;;;;;;;9.30;99.90;;;;;;4901171;29;19978;-83
2021/12/29 20:44:18;;;;;;;;;;;9.20;99.90;;;;;;4902127;29;19974;-80
2021/12/29 20:46:44;;;;;;;;;;;9.20;99.90;;;;;;4900508;29;19923;-81
2021/12/29 20:49:25;;;;;;;;;;;9.20;99.90;;;;;;4904772;29;19923;-80
2021/12/29 20:51:51;;;;;;;;;;;9.10;99.90;;;;;;4908193;29;19927;-85
2021/12/29 20:54:17;;;;;;;;;;;9.30;99.90;;;;;;4907602;29;19927;-85
2021/12/29 20:56:43;;;;;;;;;;;9.00;99.90;;;;;;4900581;29;19923;-83
2021/12/29 20:59:08;;;;;;;;;;;9.10;99.90;;;;;;4916626;29;19930;-91
2021/12/29 21:01:40;;;;;;;;;;;9.20;99.90;;;;;;4899592;29;19922;-83
2021/12/29 21:04:09;;;;;;;;;;;9.10;99.90;;;;;;4900448;29;19947;-85
2021/12/29 21:06:34;;;;;;;;;;;9.10;99.90;;;;;;4900081;29;19931;-87
2021/12/29 21:09:06;;;;;;;;;;;9.10;99.90;;;;;;4899477;29;19923;-83
2021/12/29 21:11:31;;;;;;;;;;;9.10;99.90;;;;;;4895872;29;19923;-84
2021/12/29 21:13:57;;;;;;;;;;;9.00;99.90;;;;;;4899947;29;20375;-80
2021/12/29 21:16:23;;;;;;;;;;;9.00;99.90;;;;;;4898415;29;19923;-81
2021/12/29 21:18:51;;;;;;;;;;;9.00;99.90;;;;;;4899613;29;19931;-84
2021/12/29 21:21:17;;;;;;;;;;;9.00;99.90;;;;;;4899034;29;20314;-84
2021/12/29 21:23:44;;;;;;;;;;;9.00;99.90;;;;;;4898457;29;19923;-89
2021/12/29 21:26:09;;;;;;;;;;;9.00;99.90;;;;;;4901880;29;19986;-88
2021/12/29 21:28:35;;;;;;;;;;;8.90;99.90;;;;;;4899357;29;19931;-88
2021/12/29 21:31:01;;;;;;;;;;;8.90;99.90;;;;;;4915167;29;20010;-87
2021/12/29 21:33:26;;;;;;;;;;;8.90;99.90;;;;;;4899103;29;20079;-90
2021/12/29 21:35:57;;;;;;;;;;;8.80;99.90;;;;;;4899154;29;20022;-87
2021/12/29 21:38:24;;;;;;;;;;;8.70;99.90;;;;;;4912242;29;19970;-88
2021/12/29 21:40:50;;;;;;;;;;;8.70;99.90;;;;;;4898135;29;19975;-89
2021/12/29 21:43:16;;;;;;;;;;;8.60;99.90;;;;;;4899283;29;19931;-90
2021/12/29 21:45:44;;;;;;;;;;;8.60;99.90;;;;;;4899179;29;19931;-85
2021/12/29 21:48:10;;;;;;;;;;;8.60;99.90;;;;;;4901593;29;19978;-80
2021/12/29 21:50:35;;;;;;;;;;;8.60;99.90;;;;;;4916244;29;20446;-83
2021/12/29 21:53:02;;;;;;;;;;;8.60;99.90;;;;;;4912845;29;19923;-86
2021/12/29 21:55:28;;;;;;;;;;;8.60;99.90;;;;;;4916329;29;20458;-85
2021/12/29 21:57:54;;;;;;;;;;;8.70;99.90;;;;;;4899560;29;19923;-85
2021/12/29 22:00:20;;;;;;;;;;;8.60;99.90;;;;;;4896785;29;19923;-86
2021/12/29 22:02:49;;;;;;;;;;;8.50;99.90;;;;;;4898059;29;20288;-86
2021/12/29 22:05:15;;;;;;;;;;;8.50;99.90;;;;;;4913743;29;19943;-87
2021/12/29 22:07:42;;;;;;;;;;;8.30;99.90;;;;;;4897963;29;19931;-87
2021/12/29 22:15:31;;;;;;;;;;;8.20;99.90;;;;;;3241679;27;19923;-86
2021/12/29 22:24:32;;;;;;;;;;;8.30;99.90;;;;;;5956926;23;19914;-85
2021/12/29 22:30:30;;;;;;;;;;;8.10;99.90;;;;;;4889427;29;19952;-84
2021/12/29 22:33:33;;;;;;;;;;;8.20;99.90;;;;;;4889996;29;19923;-87
2021/12/29 22:36:23;;;;;;;;;;;8.20;99.90;;;;;;4883825;29;19978;-86
2021/12/29 22:45:44;;;;;;;;;;;8.30;99.90;;;;;;4847905;29;19936;-87
2021/12/29 22:48:16;;;;;;;;;;;8.20;99.90;;;;;;4826967;29;20025;-87
2021/12/29 22:51:07;;;;;;;;;;;8.10;99.90;;;;;;4850706;29;19930;-87
2021/12/29 22:53:35;;;;;;;;;;;8.20;99.90;;;;;;4896825;29;20050;-87
2021/12/29 22:59:23;;;;;;;;;;;8.10;99.90;;;;;;4907290;29;20481;-87
2021/12/29 23:01:49;;;;;;;;;;;8.10;99.90;;;;;;4892934;29;19926;-87
2021/12/29 23:04:15;;;;;;;;;;;8.20;99.90;;;;;;4891406;29;20635;-87
2021/12/29 23:06:41;;;;;;;;;;;8.20;99.90;;;;;;4894397;29;19923;-85
2021/12/29 23:09:06;;;;;;;;;;;8.20;99.90;;;;;;4890780;29;20367;-87
2021/12/29 23:11:32;;;;;;;;;;;8.20;99.90;;;;;;4893727;29;20276;-86
2021/12/29 23:14:02;;;;;;;;;;;8.20;99.90;;;;;;4889368;29;20005;-88
2021/12/29 23:16:29;;;;;;;;;;;8.30;99.90;;;;;;4893072;29;19923;-87
2021/12/29 23:18:54;;;;;;;;;;;8.30;99.90;;;;;;4891921;29;19923;-86
2021/12/29 23:21:20;;;;;;;;;;;8.30;99.90;;;;;;4894664;29;19946;-87
2021/12/29 23:23:55;;;;;;;;;;;8.40;99.90;;;;;;4891621;29;19923;-87
2021/12/29 23:29:09;;;;;;;;;;;8.50;99.90;;;;;;4890051;29;19923;-86
2021/12/29 23:31:36;;;;;;;;;;;8.50;99.90;;;;;;4890287;29;19994;-86